Pagrindinis puslapis
METAR-TAF:

METAR-TAF

Oro uostai :

Ansi, Prancūzija

platuma: 45-55-45N, ilguma: 006-05-56E, Aukštis: 463 m

Dabartinis oras

Ataskaita buvo paskelbta 14 minutes, ne 17:30 UTC
Vėjas 3 kt iš Vakarų
Temperatūra 21°C
Drėgmė 28%
Slėgis 1025 hPa
Matomumas 10 km arba daugiau
nėra debesų žemiau 1500 m ir nėra kamuolinių lietaus debesų

METAR: LFLP 071730Z AUTO 27003KT CAVOK 21/02 Q1025

Laikas: 19:44 (17:44 UTC)


TAF: trūkstamas

Orai ataskaitas ir orų prognozės (METAR, TAF).

turimą stotys yra geltonos ir raudonos taškus žemėlapyje.

Perkelti pele per norėdami pamatyti stoties vardą.

Tada spustelėkite, norėdami matyti oro stebėjimo ir prognozės.

Norėdami pakeisti žemėlapį: spustelėkite ant žalios mygtukų su juodo kryžiaus žemyn,; žalią mygtuką su brūkšneliu, jei norite nutolinti; arba žalių rodyklių gretimoms žemėlapius.


METAR-TAF: